createdAt,value
2018-02-06T00:00:17.016Z,11.12
2018-02-06T00:02:46.341Z,10.70
2018-02-06T00:05:15.122Z,11.02
2018-02-06T00:07:43.701Z,9.48
2018-02-06T00:10:12.670Z,11.50
2018-02-06T00:12:42.575Z,9.88
2018-02-06T00:15:11.370Z,10.57
2018-02-06T00:17:40.132Z,11.27
2018-02-06T00:20:09.068Z,11.45
2018-02-06T00:22:51.344Z,10.73
2018-02-06T00:25:19.827Z,10.25
2018-02-06T00:27:48.835Z,11.75
2018-02-06T00:30:18.869Z,10.25
2018-02-06T00:32:47.488Z,9.95
2018-02-06T00:35:16.107Z,10.82
2018-02-06T00:37:45.720Z,10.60
2018-02-06T00:40:14.307Z,12.40
2018-02-06T00:42:42.811Z,11.80
2018-02-06T00:45:12.310Z,11.50
2018-02-06T00:47:42.899Z,12.10
2018-02-06T00:50:11.421Z,10.63
2018-02-06T00:52:40.362Z,11.43
2018-02-06T00:55:08.984Z,9.73
2018-02-06T00:57:37.942Z,10.68
2018-02-06T01:00:06.368Z,10.80
2018-02-06T01:02:35.360Z,10.70
2018-02-06T01:05:04.721Z,10.27
2018-02-06T01:07:33.344Z,10.70
2018-02-06T01:10:03.200Z,10.25
2018-02-06T01:12:31.926Z,11.23
2018-02-06T01:15:00.647Z,11.05
2018-02-06T01:17:30.186Z,11.60
2018-02-06T01:19:59.074Z,10.90
2018-02-06T01:22:27.931Z,9.88
2018-02-06T01:24:56.759Z,11.07
2018-02-06T01:27:25.966Z,10.20
2018-02-06T01:29:55.908Z,11.68
2018-02-06T01:32:24.823Z,11.63
2018-02-06T01:34:54.848Z,11.05
2018-02-06T01:37:23.939Z,10.90
2018-02-06T01:39:52.648Z,10.65
2018-02-06T01:42:21.195Z,10.82
2018-02-06T01:44:49.978Z,10.80
2018-02-06T01:47:19.280Z,11.15
2018-02-06T01:50:05.369Z,11.15
2018-02-06T01:52:34.338Z,12.18
2018-02-06T01:55:03.976Z,11.00
2018-02-06T01:57:33.037Z,11.60
2018-02-06T02:00:01.607Z,10.40
2018-02-06T02:02:31.948Z,10.32
2018-02-06T02:05:01.152Z,11.70
2018-02-06T02:07:30.746Z,11.05
2018-02-06T02:10:00.219Z,12.70
2018-02-06T02:12:28.876Z,13.20
2018-02-06T02:14:58.238Z,11.82
2018-02-06T02:17:27.509Z,11.88
2018-02-06T02:19:55.972Z,11.35
2018-02-06T02:22:24.580Z,12.32
2018-02-06T02:24:53.889Z,12.13
2018-02-06T02:27:22.430Z,11.95
2018-02-06T02:29:50.859Z,11.45
2018-02-06T02:32:20.212Z,11.93
2018-02-06T02:34:48.862Z,11.85
2018-02-06T02:37:18.163Z,12.35
2018-02-06T02:39:46.587Z,12.70
2018-02-06T04:38:48.412Z,12.23
2018-02-06T04:41:16.897Z,13.27
2018-02-06T04:43:45.703Z,13.62
2018-02-06T04:46:14.187Z,13.50
2018-02-06T04:48:42.544Z,10.63
2018-02-06T04:51:11.044Z,13.77
2018-02-06T04:53:39.773Z,12.13
2018-02-06T04:56:08.228Z,13.18
2018-02-06T04:58:37.717Z,13.20
2018-02-06T05:01:08.068Z,15.27
2018-02-06T05:03:36.665Z,13.60
2018-02-06T05:06:05.973Z,9.90
2018-02-06T05:08:34.375Z,14.23
2018-02-06T05:11:03.906Z,13.77
2018-02-06T05:13:32.561Z,13.80
2018-02-06T05:16:01.131Z,14.80
2018-02-06T05:18:30.336Z,12.77
2018-02-06T05:20:59.794Z,14.57
2018-02-06T05:23:28.421Z,13.20
2018-02-06T05:25:57.728Z,15.23
2018-02-06T05:28:28.456Z,14.45
2018-02-06T05:30:57.160Z,14.55
2018-02-06T05:33:26.472Z,13.75
2018-02-06T05:35:55.286Z,12.75
2018-02-06T05:38:24.356Z,14.98
2018-02-06T05:40:54.104Z,15.35
2018-02-06T05:43:23.558Z,15.35
2018-02-06T05:45:52.459Z,14.27
2018-02-06T05:48:22.168Z,15.32
2018-02-06T05:50:51.511Z,14.18
2018-02-06T05:53:20.046Z,15.45
2018-02-06T05:55:49.397Z,14.68
2018-02-06T05:58:18.878Z,14.18
2018-02-06T06:00:49.811Z,16.50
2018-02-06T06:03:19.867Z,14.50
2018-02-06T06:05:49.055Z,14.20
2018-02-06T06:08:18.357Z,14.70
2018-02-06T06:10:47.083Z,15.93
2018-02-06T06:13:16.675Z,15.60
2018-02-06T06:15:45.859Z,14.32
2018-02-06T06:18:14.868Z,13.57
2018-02-06T06:20:45.224Z,14.38
2018-02-06T06:23:14.560Z,14.60
2018-02-06T06:25:44.094Z,15.95
2018-02-06T06:28:12.907Z,15.40
2018-02-06T06:30:41.355Z,15.25
2018-02-06T06:33:09.891Z,14.50
2018-02-06T06:35:39.040Z,14.80
2018-02-06T06:38:07.486Z,16.40
2018-02-06T06:40:36.747Z,15.02
2018-02-06T06:43:05.196Z,13.70
2018-02-06T06:45:33.668Z,14.60
2018-02-06T06:48:02.282Z,16.73
2018-02-06T06:50:31.610Z,16.48
2018-02-06T06:53:00.761Z,16.23
2018-02-06T06:55:29.106Z,15.77
2018-02-06T06:57:57.521Z,16.65
2018-02-06T07:00:25.881Z,15.85
2018-02-06T07:02:54.223Z,17.00
2018-02-06T07:05:23.356Z,16.10
2018-02-06T07:07:51.645Z,12.85
2018-02-06T07:10:20.005Z,14.93
2018-02-06T07:12:48.298Z,15.43
2018-02-06T07:15:16.607Z,16.30
2018-02-06T07:17:46.479Z,17.50
2018-02-06T07:20:14.871Z,14.60
2018-02-06T07:22:43.243Z,17.75
2018-02-06T07:25:11.588Z,16.37
2018-02-06T07:27:40.030Z,15.65
2018-02-06T07:30:08.374Z,16.40
2018-02-06T07:32:37.568Z,17.65
2018-02-06T07:35:05.967Z,16.27
2018-02-06T07:37:34.695Z,16.95
2018-02-06T07:40:03.231Z,15.98
2018-02-06T07:42:31.755Z,17.00
2018-02-06T07:45:00.104Z,15.75
2018-02-06T07:47:30.246Z,17.58
2018-02-06T07:49:58.604Z,15.80
2018-02-06T07:52:26.930Z,15.85
2018-02-06T07:54:55.269Z,16.65
2018-02-06T07:57:24.396Z,18.48
2018-02-06T07:59:52.802Z,17.30
2018-02-06T08:02:21.331Z,17.62
2018-02-06T08:04:50.851Z,17.60
2018-02-06T08:07:19.418Z,15.55
2018-02-06T08:09:47.754Z,16.40
2018-02-06T08:12:17.718Z,16.20
2018-02-06T08:14:46.040Z,15.30
2018-02-06T08:17:14.396Z,16.00
2018-02-06T08:19:42.712Z,15.23
2018-02-06T08:22:11.806Z,16.12
2018-02-06T08:24:40.973Z,17.42
2018-02-06T08:27:10.440Z,15.23
2018-02-06T08:29:38.838Z,16.43
2018-02-06T08:32:07.220Z,15.77
2018-02-06T08:34:36.786Z,16.65
2018-02-06T08:37:05.102Z,15.85
2018-02-06T08:39:33.710Z,15.93
2018-02-06T08:42:02.306Z,16.80
2018-02-06T08:44:30.663Z,16.80
2018-02-06T08:46:59.028Z,15.75
2018-02-06T08:52:02.187Z,16.67
2018-02-06T08:54:30.529Z,16.20
2018-02-06T08:57:00.375Z,16.73
2018-02-06T08:59:28.720Z,17.77
2018-02-06T09:01:57.128Z,14.73
2018-02-06T09:04:25.635Z,16.62
2018-02-06T09:06:53.975Z,14.52
2018-02-06T09:09:23.185Z,16.50
2018-02-06T09:11:52.246Z,16.08
2018-02-06T09:14:20.577Z,15.98
2018-02-06T09:16:48.913Z,18.02
2018-02-06T09:19:17.394Z,16.87
2018-02-06T09:21:46.658Z,16.30
2018-02-06T09:24:15.023Z,15.82
2018-02-06T09:26:44.577Z,16.08
2018-02-06T09:29:12.916Z,18.12
2018-02-06T09:31:41.297Z,17.60
2018-02-06T09:34:09.752Z,15.88
2018-02-06T09:36:38.088Z,16.70
2018-02-06T09:39:07.178Z,16.35
2018-02-06T09:41:36.278Z,15.80
2018-02-06T09:44:05.374Z,16.70
2018-02-06T09:46:33.834Z,18.15
2018-02-06T09:49:03.769Z,17.12
2018-02-06T09:51:32.102Z,16.90
2018-02-06T09:54:00.462Z,18.48
2018-02-06T09:56:28.758Z,16.02
2018-02-06T09:58:57.127Z,17.35
2018-02-06T10:01:26.044Z,17.25
2018-02-06T10:03:54.361Z,17.70
2018-02-06T10:06:22.683Z,16.85
2018-02-06T10:08:51.771Z,18.33
2018-02-06T10:11:20.590Z,18.42
2018-02-06T10:13:49.765Z,18.77
2018-02-06T10:16:18.110Z,17.77
2018-02-06T10:18:46.426Z,18.42
2018-02-06T10:21:14.777Z,19.05
2018-02-06T10:23:43.095Z,16.48
2018-02-06T10:26:12.186Z,18.23
2018-02-06T10:28:41.371Z,17.55
2018-02-06T10:31:09.705Z,17.10
2018-02-06T10:33:38.050Z,17.75
2018-02-06T10:36:07.215Z,17.85
2018-02-06T10:38:35.834Z,18.27
2018-02-06T10:41:04.131Z,17.75
2018-02-06T10:43:32.696Z,18.77
2018-02-06T10:46:01.002Z,18.02
2018-02-06T10:48:29.444Z,18.05
2018-02-06T10:50:58.641Z,16.98
2018-02-06T10:53:26.947Z,18.20
2018-02-06T10:55:55.255Z,18.98
2018-02-06T10:58:23.551Z,17.00
2018-02-06T11:00:52.628Z,18.60
2018-02-06T11:03:20.938Z,19.77
2018-02-06T11:05:49.406Z,18.05
2018-02-06T11:08:17.777Z,19.05
2018-02-06T11:10:46.847Z,18.40
2018-02-06T11:13:15.290Z,19.62
2018-02-06T11:15:43.764Z,18.48
2018-02-06T11:18:12.260Z,19.87
2018-02-06T11:20:40.619Z,20.67
2018-02-06T11:23:09.565Z,19.45
2018-02-06T11:25:37.892Z,19.87
2018-02-06T11:28:06.186Z,19.67
2018-02-06T11:30:34.558Z,18.08
2018-02-06T11:33:02.923Z,19.15
2018-02-06T11:35:31.254Z,19.42
2018-02-06T11:38:00.355Z,18.85
2018-02-06T11:40:29.478Z,18.37
2018-02-06T11:42:58.798Z,19.35
2018-02-06T11:45:27.119Z,16.85
2018-02-06T11:47:56.200Z,18.98
2018-02-06T11:50:24.642Z,20.33
2018-02-06T11:52:53.036Z,17.58
2018-02-06T11:55:21.619Z,19.37
2018-02-06T11:57:49.941Z,20.00
2018-02-06T12:00:19.037Z,20.02
2018-02-06T12:02:47.389Z,19.92
2018-02-06T12:05:15.720Z,20.25
2018-02-06T12:07:44.264Z,18.20
2018-02-06T12:10:13.613Z,18.70
2018-02-06T12:12:42.020Z,18.58
2018-02-06T12:15:10.532Z,18.40
2018-02-06T12:17:38.889Z,18.55
2018-02-06T12:20:07.972Z,18.50
2018-02-06T12:22:37.339Z,17.65
2018-02-06T12:25:06.491Z,18.95
2018-02-06T12:27:36.150Z,17.67
2018-02-06T12:30:04.868Z,20.65
2018-02-06T12:32:33.979Z,18.35
2018-02-06T12:35:03.082Z,17.85
2018-02-06T12:37:31.427Z,18.55
2018-02-06T12:39:59.798Z,20.02
2018-02-06T12:42:28.492Z,20.23
2018-02-06T12:44:57.209Z,20.73
2018-02-06T12:47:25.818Z,18.40
2018-02-06T12:49:54.245Z,18.40
2018-02-06T12:52:23.353Z,20.27
2018-02-06T12:54:51.778Z,19.73
2018-02-06T12:57:21.033Z,20.12
2018-02-06T12:59:49.427Z,19.70
2018-02-06T13:02:17.792Z,18.90
2018-02-06T13:04:46.315Z,19.00
2018-02-06T13:07:15.477Z,20.77
2018-02-06T13:09:43.999Z,22.00
2018-02-06T13:12:12.473Z,19.98
2018-02-06T13:14:41.059Z,18.75
2018-02-06T13:17:09.422Z,19.73
2018-02-06T13:19:37.738Z,19.42
2018-02-06T13:22:06.369Z,19.95
2018-02-06T13:24:34.819Z,20.85
2018-02-06T13:27:04.131Z,21.12
2018-02-06T13:29:33.545Z,19.35
2018-02-06T13:32:03.028Z,19.60
2018-02-06T13:34:31.531Z,18.35
2018-02-06T13:36:59.881Z,19.80
2018-02-06T13:39:28.493Z,18.37
2018-02-06T13:41:57.801Z,19.12
2018-02-06T13:44:27.121Z,18.52
2018-02-06T13:46:56.654Z,19.50
2018-02-06T13:49:25.067Z,19.50
2018-02-06T13:51:54.423Z,18.80
